Alvarado, Texas
Current Conditions -  °F | °C
As of 7:35 PM on Friday 24 Oct 2014 (Local Time) from KFWS Reporting Station
Clear Clear  
Wind Chill: 73°   Ceiling: Unl
Heat Index: 73°   Visibility: 10mi
Dew Point: 61°   Wind: 3mph
Humidity: 65%   Direction: 150°SSE
Pressure: 30.09"   Gusts: NA
Location:  32.41°N, 97.21°W
Report Text: KFWS 250035Z AUTO 15003KT 10SM CLR 23/16 A3009 RMK AO2 T02270159
Loading
Personal Weather Stations






























Interactive Weather Map
Tropical Storm Tracking
New forecast layout! Learn more

10-Day Weather Forecast

Advertisements
Track Severe Weather on mobile